createdAt,value
2019-06-07T00:01:01.137Z,17.84
2019-06-07T00:03:30.830Z,17.83
2019-06-07T00:06:00.491Z,17.81
2019-06-07T00:08:30.306Z,17.78
2019-06-07T00:10:59.687Z,17.75
2019-06-07T00:13:29.508Z,17.71
2019-06-07T00:15:58.879Z,17.69
2019-06-07T00:18:28.324Z,17.66
2019-06-07T00:20:59.374Z,17.63
2019-06-07T00:23:28.657Z,17.61
2019-06-07T00:25:57.908Z,17.59
2019-06-07T00:28:27.440Z,17.57
2019-06-07T00:30:56.925Z,17.54
2019-06-07T00:33:26.670Z,17.52
2019-06-07T00:35:55.891Z,17.48
2019-06-07T00:38:25.293Z,17.48
2019-06-07T00:40:54.925Z,17.45
2019-06-07T00:43:28.141Z,17.45
2019-06-07T00:45:55.644Z,17.43
2019-06-07T00:48:32.059Z,17.40
2019-06-07T00:50:57.417Z,17.38
2019-06-07T00:53:32.170Z,17.34
2019-06-07T00:55:58.361Z,17.32
2019-06-07T00:58:29.531Z,17.28
2019-06-07T01:00:58.939Z,17.23
2019-06-07T01:03:28.695Z,17.21
2019-06-07T01:05:57.991Z,17.21
2019-06-07T01:08:29.825Z,17.19
2019-06-07T01:10:58.313Z,17.17
2019-06-07T01:13:27.371Z,17.16
2019-06-07T01:15:56.404Z,17.15
2019-06-07T01:18:37.679Z,17.14
2019-06-07T01:20:56.435Z,17.13
2019-06-07T01:23:59.863Z,17.11
2019-06-07T01:25:56.338Z,17.08
2019-06-07T01:28:27.066Z,17.04
2019-06-07T01:30:56.270Z,17.01
2019-06-07T01:33:38.122Z,17.00
2019-06-07T01:35:56.160Z,16.99
2019-06-07T01:38:26.913Z,16.98
2019-06-07T01:40:55.954Z,16.98
2019-06-07T01:43:27.041Z,16.95
2019-06-07T01:45:55.773Z,16.96
2019-06-07T01:48:27.769Z,16.94
2019-06-07T01:50:55.747Z,16.93
2019-06-07T01:53:26.379Z,16.90
2019-06-07T01:55:55.649Z,16.87
2019-06-07T01:58:27.372Z,16.83
2019-06-07T02:00:55.508Z,16.82
2019-06-07T02:03:29.322Z,16.78
2019-06-07T02:05:55.426Z,16.76
2019-06-07T02:08:27.278Z,16.75
2019-06-07T02:10:55.722Z,16.74
2019-06-07T02:13:27.833Z,16.73
2019-06-07T02:15:55.774Z,16.70
2019-06-07T02:18:28.087Z,16.68
2019-06-07T02:20:55.648Z,16.66
2019-06-07T02:23:29.194Z,16.65
2019-06-07T02:25:55.501Z,16.64
2019-06-07T02:28:40.160Z,16.64
2019-06-07T02:31:00.120Z,16.61
2019-06-07T02:33:28.964Z,16.60
2019-06-07T02:35:56.953Z,16.57
2019-06-07T02:38:29.392Z,16.57
2019-06-07T02:40:56.839Z,16.56
2019-06-07T02:43:28.221Z,16.54
2019-06-07T02:45:56.745Z,16.53
2019-06-07T02:48:27.918Z,16.51
2019-06-07T02:50:56.543Z,16.49
2019-06-07T02:53:27.085Z,16.50
2019-06-07T02:56:34.827Z,16.49
2019-06-07T02:58:31.136Z,16.47
2019-06-07T03:01:07.570Z,16.47
2019-06-07T03:03:31.085Z,16.46
2019-06-07T03:05:59.919Z,16.46
2019-06-07T03:08:30.843Z,16.46
2019-06-07T03:10:59.923Z,16.45
2019-06-07T03:13:30.584Z,16.44
2019-06-07T03:16:01.436Z,16.44
2019-06-07T03:18:57.679Z,16.42
2019-06-07T03:21:28.146Z,16.40
2019-06-07T03:23:58.079Z,16.37
2019-06-07T03:26:27.770Z,16.35
2019-06-07T03:28:58.111Z,16.35
2019-06-07T03:31:30.900Z,16.35
2019-06-07T03:33:58.354Z,16.35
2019-06-07T03:36:27.593Z,16.37
2019-06-07T03:38:56.722Z,16.38
2019-06-07T03:41:28.309Z,16.42
2019-06-07T03:43:56.818Z,16.42
2019-06-07T03:46:27.310Z,16.44
2019-06-07T03:48:56.607Z,16.46
2019-06-07T03:51:27.374Z,16.49
2019-06-07T03:53:56.589Z,16.45
2019-06-07T03:56:25.691Z,16.50
2019-06-07T03:58:54.880Z,16.53
2019-06-07T04:01:23.915Z,16.60
2019-06-07T04:03:53.093Z,16.65
2019-06-07T04:06:22.349Z,16.73
2019-06-07T04:08:51.492Z,16.77
2019-06-07T04:11:20.603Z,16.84
2019-06-07T04:13:49.841Z,16.87
2019-06-07T04:16:19.008Z,16.93
2019-06-07T04:18:48.263Z,17.00
2019-06-07T04:21:17.407Z,17.06
2019-06-07T04:23:46.602Z,17.13
2019-06-07T04:26:15.761Z,17.17
2019-06-07T04:31:15.642Z,17.29
2019-06-07T04:33:44.731Z,17.34
2019-06-07T04:36:13.827Z,17.38
2019-06-07T04:38:43.048Z,17.43
2019-06-07T04:41:12.136Z,17.47
2019-06-07T04:43:42.874Z,17.53
2019-06-07T04:46:12.784Z,17.59
2019-06-07T04:48:43.737Z,17.68
2019-06-07T04:51:14.727Z,17.74
2019-06-07T04:53:43.880Z,17.82
2019-06-07T04:56:13.058Z,17.91
2019-06-07T04:58:43.249Z,17.98
2019-06-07T05:01:26.689Z,18.07
2019-06-07T05:03:44.405Z,18.13
2019-06-07T05:06:13.882Z,18.18
2019-06-07T05:08:43.941Z,18.18
2019-06-07T05:11:13.238Z,18.18
2019-06-07T05:13:43.992Z,18.19
2019-06-07T05:16:13.534Z,18.17
2019-06-07T05:18:43.391Z,18.17
2019-06-07T05:21:12.657Z,18.23
2019-06-07T05:24:05.887Z,18.30
2019-06-07T05:26:12.731Z,18.35
2019-06-07T05:28:43.003Z,18.38
2019-06-07T05:31:13.539Z,18.45
2019-06-07T05:33:43.564Z,18.55
2019-06-07T05:36:12.850Z,18.60
2019-06-07T05:38:44.725Z,18.70
2019-06-07T05:41:12.687Z,18.80
2019-06-07T05:43:49.376Z,18.92
2019-06-07T05:46:12.552Z,19.10
2019-06-07T05:48:42.485Z,19.35
2019-06-07T05:51:12.365Z,19.73
2019-06-07T05:53:44.723Z,20.27
2019-06-07T05:56:13.214Z,20.74
2019-06-07T05:58:44.624Z,21.21
2019-06-07T06:01:42.398Z,21.68
2019-06-07T06:03:48.072Z,22.02
2019-06-07T06:06:15.480Z,22.42
2019-06-07T06:08:47.559Z,22.84
2019-06-07T06:11:15.395Z,23.06
2019-06-07T06:14:05.332Z,23.31
2019-06-07T06:16:15.308Z,23.49
2019-06-07T06:18:47.185Z,23.67
2019-06-07T06:21:19.688Z,24.08
2019-06-07T06:23:50.729Z,24.31
2019-06-07T06:26:17.636Z,24.48
2019-06-07T06:28:46.684Z,24.70
2019-06-07T06:31:15.763Z,24.83
2019-06-07T06:33:46.867Z,25.19
2019-06-07T06:36:15.686Z,25.43
2019-06-07T06:38:47.151Z,25.56
2019-06-07T06:41:16.721Z,25.68
2019-06-07T06:43:49.379Z,25.77
2019-06-07T06:46:37.568Z,25.85
2019-06-07T06:48:54.382Z,25.81
2019-06-07T06:51:18.474Z,25.89
2019-06-07T06:53:49.883Z,25.93
2019-06-07T06:56:18.407Z,25.76
2019-06-07T06:59:30.104Z,25.80
2019-06-07T07:01:21.524Z,26.06
2019-06-07T07:04:11.262Z,26.05
2019-06-07T07:06:26.285Z,26.16
2019-06-07T07:08:53.480Z,26.14
2019-06-07T07:11:23.372Z,26.22
2019-06-07T07:13:56.288Z,26.50
2019-06-07T07:16:23.390Z,26.71
2019-06-07T07:18:54.561Z,26.90
2019-06-07T07:21:23.659Z,27.14
2019-06-07T07:24:19.716Z,27.38
2019-06-07T07:26:23.674Z,27.36
2019-06-07T07:28:57.144Z,27.29
2019-06-07T07:31:23.705Z,27.26
2019-06-07T07:34:30.897Z,27.38
2019-06-07T07:36:38.707Z,27.40
2019-06-07T07:39:00.475Z,27.61
2019-06-07T07:41:26.041Z,27.54
2019-06-07T07:44:06.019Z,27.66
2019-06-07T07:46:29.978Z,27.64
2019-06-07T07:48:59.079Z,27.71
2019-06-07T07:51:28.272Z,28.12
2019-06-07T07:54:10.231Z,28.29
2019-06-07T07:56:28.406Z,28.47
2019-06-07T07:59:01.970Z,28.64
2019-06-07T08:01:28.478Z,28.00
2019-06-07T08:03:58.754Z,28.53
2019-06-07T08:06:28.075Z,28.60
2019-06-07T08:08:57.472Z,28.75
2019-06-07T08:11:26.578Z,28.57
2019-06-07T08:13:58.487Z,28.70
2019-06-07T08:16:26.677Z,28.95
2019-06-07T08:19:00.338Z,29.44
2019-06-07T08:21:27.387Z,29.98
2019-06-07T08:24:00.719Z,30.59
2019-06-07T08:26:27.548Z,30.73
2019-06-07T08:28:59.719Z,30.86
2019-06-07T08:31:27.540Z,31.16
2019-06-07T08:33:58.430Z,31.43
2019-06-07T08:36:41.252Z,31.72
2019-06-07T08:39:07.027Z,31.98
2019-06-07T08:41:28.976Z,32.35
2019-06-07T08:44:00.599Z,32.45
2019-06-07T08:46:29.029Z,32.59
2019-06-07T08:49:03.897Z,32.93
2019-06-07T08:51:29.069Z,33.09
2019-06-07T08:54:18.675Z,33.33
2019-06-07T08:56:29.396Z,33.44
2019-06-07T08:59:03.178Z,33.24
2019-06-07T09:01:29.632Z,33.28
2019-06-07T09:04:02.750Z,33.24
2019-06-07T09:09:03.554Z,33.41
2019-06-07T09:11:31.354Z,33.35
2019-06-07T09:14:05.369Z,33.69
2019-06-07T09:16:31.250Z,33.90
2019-06-07T09:19:03.854Z,33.91
2019-06-07T09:21:31.148Z,34.10
2019-06-07T09:24:05.639Z,34.25
2019-06-07T09:26:31.106Z,34.30
2019-06-07T09:29:03.390Z,34.54
2019-06-07T09:31:51.175Z,34.86
2019-06-07T09:34:08.297Z,34.85
2019-06-07T09:36:33.117Z,35.22
2019-06-07T09:39:07.626Z,35.89
2019-06-07T09:41:46.936Z,36.07
2019-06-07T09:44:19.062Z,36.23
2019-06-07T09:46:34.700Z,36.41
2019-06-07T09:49:27.728Z,36.69
2019-06-07T09:51:34.586Z,37.04
2019-06-07T09:54:08.113Z,37.14
2019-06-07T09:56:34.476Z,36.97
2019-06-07T09:59:06.843Z,36.61
2019-06-07T10:01:34.744Z,36.42
2019-06-07T10:04:11.625Z,36.27
2019-06-07T10:06:35.169Z,36.26
2019-06-07T10:11:37.950Z,36.81
2019-06-07T10:14:07.236Z,37.22
2019-06-07T10:16:46.317Z,37.70
2019-06-07T10:19:07.645Z,37.88
2019-06-07T10:21:36.902Z,37.85
2019-06-07T10:24:07.396Z,37.96
2019-06-07T10:26:37.660Z,37.86
2019-06-07T10:29:08.671Z,37.60
2019-06-07T10:31:38.215Z,37.57
2019-06-07T10:34:08.450Z,37.95
2019-06-07T10:36:37.960Z,38.67
2019-06-07T10:39:08.938Z,39.46
2019-06-07T10:41:39.511Z,39.85
2019-06-07T10:44:09.407Z,39.75
2019-06-07T10:46:38.923Z,40.26
2019-06-07T10:49:09.998Z,40.02
2019-06-07T10:51:39.360Z,40.09
2019-06-07T10:54:22.976Z,40.04
2019-06-07T10:56:40.186Z,40.07
2019-06-07T10:59:11.928Z,39.99
2019-06-07T11:01:42.351Z,39.95
2019-06-07T11:04:11.812Z,40.21
2019-06-07T11:06:41.216Z,40.30
2019-06-07T11:09:11.972Z,40.04
2019-06-07T11:11:41.234Z,39.92
2019-06-07T11:14:10.680Z,39.89
2019-06-07T11:16:39.916Z,39.60
2019-06-07T11:19:13.903Z,39.05
2019-06-07T11:21:40.728Z,38.48
2019-06-07T11:24:10.243Z,37.57
2019-06-07T11:26:39.531Z,36.53
2019-06-07T11:29:10.899Z,35.81
2019-06-07T11:31:40.577Z,35.14
2019-06-07T11:34:10.475Z,34.01
2019-06-07T11:36:39.799Z,33.08
2019-06-07T11:39:10.924Z,32.54
2019-06-07T11:41:40.597Z,31.99
2019-06-07T11:44:10.983Z,31.58
2019-06-07T11:46:40.348Z,31.28
2019-06-07T11:49:10.865Z,30.99
2019-06-07T11:51:40.919Z,30.76
2019-06-07T11:54:11.939Z,30.63
2019-06-07T11:56:41.231Z,30.49
2019-06-07T11:59:11.205Z,30.38
2019-06-07T12:01:40.390Z,30.35
2019-06-07T12:04:09.645Z,30.26
2019-06-07T12:06:38.920Z,30.11
2019-06-07T12:09:08.642Z,30.04
2019-06-07T12:11:38.133Z,30.04
2019-06-07T12:14:08.625Z,30.00
2019-06-07T12:16:37.989Z,29.96
2019-06-07T12:19:07.123Z,30.04
2019-06-07T12:21:36.219Z,30.06
2019-06-07T12:24:05.505Z,30.20
2019-06-07T12:26:34.753Z,30.35
2019-06-07T12:29:03.887Z,30.45
2019-06-07T12:31:34.384Z,30.55
2019-06-07T12:34:19.995Z,30.57
2019-06-07T12:36:49.738Z,30.63
2019-06-07T12:39:20.149Z,30.73
2019-06-07T12:41:52.560Z,30.85
2019-06-07T12:44:22.874Z,31.02
2019-06-07T12:46:53.554Z,31.24
2019-06-07T12:49:23.605Z,31.44
2019-06-07T12:51:56.143Z,31.56
2019-06-07T12:54:25.433Z,31.65
2019-06-07T12:56:54.597Z,31.73
2019-06-07T12:59:24.316Z,31.66
2019-06-07T13:01:53.547Z,31.61
2019-06-07T13:04:22.653Z,31.43
2019-06-07T13:06:51.684Z,31.31
2019-06-07T13:09:21.883Z,31.21
2019-06-07T13:11:51.099Z,31.14
2019-06-07T13:14:20.181Z,31.16
2019-06-07T13:16:49.363Z,31.18
2019-06-07T13:19:18.402Z,31.28
2019-06-07T13:21:47.652Z,31.25
2019-06-07T13:24:18.786Z,31.11
2019-06-07T13:26:47.903Z,30.93
2019-06-07T13:29:18.641Z,30.81
2019-06-07T13:31:47.996Z,30.71
2019-06-07T13:34:18.538Z,30.72
2019-06-07T13:36:48.282Z,30.82
2019-06-07T13:39:17.468Z,30.86
2019-06-07T13:41:46.659Z,30.97
2019-06-07T13:44:16.740Z,30.99
2019-06-07T13:46:46.732Z,30.97
2019-06-07T13:49:17.329Z,30.91
2019-06-07T13:51:46.754Z,30.89
2019-06-07T13:54:16.081Z,30.79
2019-06-07T13:57:01.495Z,30.78
2019-06-07T13:59:16.448Z,30.75
2019-06-07T14:01:45.676Z,30.71
2019-06-07T14:04:14.812Z,30.72
2019-06-07T14:06:44.006Z,30.72
2019-06-07T14:09:13.575Z,30.67
2019-06-07T14:11:50.645Z,30.63
2019-06-07T14:14:13.514Z,30.57
2019-06-07T14:16:42.701Z,30.39
2019-06-07T14:19:12.126Z,30.29
2019-06-07T14:21:41.225Z,30.19
2019-06-07T14:24:10.263Z,30.13
2019-06-07T14:26:41.167Z,30.10
2019-06-07T14:29:10.378Z,30.12
2019-06-07T14:31:39.456Z,30.11
2019-06-07T14:34:08.550Z,30.00
2019-06-07T14:36:37.642Z,30.01
2019-06-07T14:39:07.479Z,30.04
2019-06-07T14:41:36.561Z,30.06
2019-06-07T14:44:05.642Z,30.10
2019-06-07T14:46:34.827Z,30.15
2019-06-07T14:49:09.379Z,30.10
2019-06-07T14:51:38.494Z,30.09
2019-06-07T14:54:07.587Z,30.08
2019-06-07T14:56:36.649Z,30.16
2019-06-07T14:59:05.850Z,30.12
2019-06-07T15:01:35.658Z,30.20
2019-06-07T15:04:04.978Z,30.29
2019-06-07T15:06:34.932Z,30.32
2019-06-07T15:09:04.814Z,30.27
2019-06-07T15:11:35.031Z,30.14
2019-06-07T15:14:04.255Z,30.11
2019-06-07T15:16:33.875Z,30.11
2019-06-07T15:19:03.029Z,30.26
2019-06-07T15:21:32.965Z,30.43
2019-06-07T15:24:02.296Z,30.52
2019-06-07T15:26:32.484Z,30.57
2019-06-07T15:29:02.071Z,30.60
2019-06-07T15:31:32.092Z,30.52
2019-06-07T15:34:02.961Z,30.38
2019-06-07T15:36:32.408Z,30.18
2019-06-07T15:39:01.958Z,30.04
2019-06-07T15:41:32.993Z,29.85
2019-06-07T15:44:05.463Z,29.67
2019-06-07T15:46:35.690Z,29.48
2019-06-07T15:49:05.010Z,29.33
2019-06-07T15:51:34.529Z,29.18
2019-06-07T15:54:03.815Z,29.12
2019-06-07T15:56:34.533Z,29.06
2019-06-07T15:59:04.341Z,28.99
2019-06-07T16:01:35.594Z,28.91
2019-06-07T16:04:07.132Z,28.78
2019-06-07T16:06:38.312Z,28.26
2019-06-07T16:09:09.116Z,28.26
2019-06-07T16:11:41.531Z,27.50
2019-06-07T16:14:11.178Z,26.70
2019-06-07T16:16:41.394Z,26.26
2019-06-07T16:19:10.579Z,25.99
2019-06-07T16:21:39.673Z,25.83
2019-06-07T16:24:08.788Z,25.76
2019-06-07T16:26:40.755Z,25.69
2019-06-07T16:29:10.045Z,25.61
2019-06-07T16:31:39.233Z,25.57
2019-06-07T16:34:08.289Z,25.53
2019-06-07T16:36:38.365Z,25.43
2019-06-07T16:39:08.471Z,25.30
2019-06-07T16:41:38.353Z,25.24
2019-06-07T16:44:07.531Z,25.18
2019-06-07T16:46:36.778Z,25.26
2019-06-07T16:49:05.942Z,25.29
2019-06-07T16:51:36.924Z,25.34
2019-06-07T16:54:06.164Z,25.26
2019-06-07T16:56:43.339Z,25.18
2019-06-07T16:59:10.612Z,25.08
2019-06-07T17:01:41.004Z,24.90
2019-06-07T17:04:10.277Z,24.87
2019-06-07T17:06:39.570Z,24.81
2019-06-07T17:09:08.895Z,24.76
2019-06-07T17:11:38.551Z,24.71
2019-06-07T17:14:07.651Z,24.64
2019-06-07T17:16:36.926Z,24.57
2019-06-07T17:19:06.206Z,24.48
2019-06-07T17:21:35.350Z,24.36
2019-06-07T17:24:05.568Z,24.19
2019-06-07T17:26:34.707Z,24.02
2019-06-07T17:29:05.048Z,23.85
2019-06-07T17:31:37.230Z,23.73
2019-06-07T17:34:06.425Z,23.66
2019-06-07T17:36:36.767Z,23.59
2019-06-07T17:39:07.777Z,23.56
2019-06-07T17:41:50.521Z,23.51
2019-06-07T17:44:07.797Z,23.36
2019-06-07T17:46:37.291Z,23.23
2019-06-07T17:49:06.317Z,23.09
2019-06-07T17:51:35.548Z,23.01
2019-06-07T17:54:04.656Z,22.93
2019-06-07T17:56:33.873Z,22.83
2019-06-07T17:59:03.001Z,22.79
2019-06-07T18:01:41.121Z,22.76
2019-06-07T18:04:02.988Z,22.75
2019-06-07T18:06:32.147Z,22.71
2019-06-07T18:09:01.272Z,22.73
2019-06-07T18:11:30.369Z,22.70
2019-06-07T18:14:10.004Z,22.61
2019-06-07T18:16:30.698Z,22.60
2019-06-07T18:19:01.864Z,22.61
2019-06-07T18:21:30.995Z,22.58
2019-06-07T18:24:00.202Z,22.54
2019-06-07T18:26:29.573Z,22.40
2019-06-07T18:28:59.307Z,22.37
2019-06-07T18:31:28.832Z,22.32
2019-06-07T18:33:59.214Z,22.20
2019-06-07T18:36:28.455Z,22.19
2019-06-07T18:38:57.778Z,22.13
2019-06-07T18:41:26.904Z,22.08
2019-06-07T18:43:56.033Z,21.94
2019-06-07T18:46:25.176Z,21.83
2019-06-07T18:48:54.821Z,21.81
2019-06-07T18:51:24.023Z,21.74
2019-06-07T18:53:53.719Z,21.68
2019-06-07T18:56:23.192Z,21.68
2019-06-07T18:58:53.142Z,21.69
2019-06-07T19:01:22.335Z,21.70
2019-06-07T19:03:52.439Z,21.74
2019-06-07T19:06:21.449Z,21.73
2019-06-07T19:08:54.754Z,21.79
2019-06-07T19:11:21.288Z,21.84
2019-06-07T19:13:50.939Z,21.88
2019-06-07T19:16:20.101Z,21.91
2019-06-07T19:18:49.707Z,21.94
2019-06-07T19:21:18.958Z,21.97
2019-06-07T19:23:48.159Z,22.01
2019-06-07T19:26:17.480Z,22.04
2019-06-07T19:28:46.675Z,22.06
2019-06-07T19:31:15.787Z,22.08
2019-06-07T19:33:49.064Z,22.06
2019-06-07T19:36:15.849Z,22.01
2019-06-07T19:38:45.050Z,21.97
2019-06-07T19:41:19.731Z,21.90
2019-06-07T19:43:45.086Z,21.87
2019-06-07T19:46:14.180Z,21.85
2019-06-07T19:48:43.268Z,21.83
2019-06-07T19:51:12.408Z,21.81
2019-06-07T19:53:41.488Z,21.77
2019-06-07T19:56:11.551Z,21.76
2019-06-07T19:58:40.642Z,21.74
2019-06-07T20:01:09.737Z,21.77
2019-06-07T20:03:38.879Z,21.72
2019-06-07T20:06:07.949Z,21.73
2019-06-07T20:08:37.109Z,21.73
2019-06-07T20:11:08.961Z,21.71
2019-06-07T20:13:37.975Z,21.67
2019-06-07T20:16:10.045Z,21.68
2019-06-07T20:18:39.133Z,21.66
2019-06-07T20:21:09.227Z,21.69
2019-06-07T20:23:38.440Z,21.70
2019-06-07T20:26:08.780Z,21.66
2019-06-07T20:28:37.953Z,21.65
2019-06-07T20:31:08.216Z,21.62
2019-06-07T20:33:37.626Z,21.62
2019-06-07T20:36:06.736Z,21.63
2019-06-07T20:38:37.516Z,21.57
2019-06-07T20:41:07.822Z,21.53
2019-06-07T20:43:36.929Z,21.51
2019-06-07T20:46:09.066Z,21.50
2019-06-07T20:48:38.197Z,21.52
2019-06-07T20:51:08.682Z,21.44
2019-06-07T20:53:37.893Z,21.40
2019-06-07T20:56:07.093Z,21.41
2019-06-07T20:58:36.315Z,21.37
2019-06-07T21:01:09.005Z,21.30
2019-06-07T21:03:38.161Z,21.27
2019-06-07T21:06:07.540Z,21.18
2019-06-07T21:08:36.611Z,21.15
2019-06-07T21:11:05.863Z,21.06
2019-06-07T21:13:34.980Z,21.03
2019-06-07T21:16:04.311Z,20.94
2019-06-07T21:18:33.332Z,20.87
2019-06-07T21:21:02.432Z,20.84
2019-06-07T21:23:32.890Z,20.82
2019-06-07T21:26:02.813Z,20.80
2019-06-07T21:28:32.208Z,20.80
2019-06-07T21:31:03.408Z,20.77
2019-06-07T21:33:32.162Z,20.71
2019-06-07T21:36:01.604Z,20.76
2019-06-07T21:38:33.592Z,20.76
2019-06-07T21:41:04.087Z,20.71
2019-06-07T21:43:33.154Z,20.72
2019-06-07T21:46:07.029Z,20.68
2019-06-07T21:48:33.020Z,20.73
2019-06-07T21:51:02.285Z,20.73
2019-06-07T21:53:31.267Z,20.77
2019-06-07T21:56:00.365Z,20.75
2019-06-07T21:58:29.481Z,20.75
2019-06-07T22:01:17.165Z,20.74
2019-06-07T22:03:46.187Z,20.75
2019-06-07T22:06:15.461Z,20.72
2019-06-07T22:08:44.533Z,20.72
2019-06-07T22:11:14.157Z,20.76
2019-06-07T22:13:43.308Z,20.77
2019-06-07T22:16:26.554Z,20.75
2019-06-07T22:18:43.258Z,20.78
2019-06-07T22:21:12.732Z,20.78
2019-06-07T22:23:43.758Z,20.77
2019-06-07T22:26:13.288Z,20.75
2019-06-07T22:28:42.546Z,20.79
2019-06-07T22:31:12.837Z,20.82
2019-06-07T22:33:41.944Z,20.87
2019-06-07T22:36:11.082Z,20.86
2019-06-07T22:38:40.112Z,20.85
2019-06-07T22:41:09.480Z,20.79
2019-06-07T22:43:38.562Z,20.81
2019-06-07T22:46:08.686Z,20.86
2019-06-07T22:48:37.896Z,20.86
2019-06-07T22:51:09.456Z,20.84
2019-06-07T22:53:42.591Z,20.84
2019-06-07T22:56:21.193Z,20.88
2019-06-07T22:58:50.316Z,20.90
2019-06-07T23:01:20.200Z,20.87
2019-06-07T23:03:49.326Z,20.88
2019-06-07T23:06:18.993Z,20.85
2019-06-07T23:08:48.127Z,20.82
2019-06-07T23:11:17.384Z,20.80
2019-06-07T23:13:46.547Z,20.81
2019-06-07T23:16:15.844Z,20.82
2019-06-07T23:18:44.981Z,20.84
2019-06-07T23:21:14.059Z,20.83
2019-06-07T23:23:43.195Z,20.91
2019-06-07T23:26:12.267Z,20.82
2019-06-07T23:28:41.325Z,20.82
2019-06-07T23:31:10.448Z,20.78
2019-06-07T23:33:39.503Z,20.76
2019-06-07T23:36:08.624Z,20.75
2019-06-07T23:38:37.632Z,20.67
2019-06-07T23:41:06.769Z,20.66
2019-06-07T23:43:35.808Z,20.67
2019-06-07T23:46:04.916Z,20.63
2019-06-07T23:48:33.976Z,20.60
2019-06-07T23:51:03.041Z,20.51
2019-06-07T23:53:32.075Z,20.45
2019-06-07T23:56:01.149Z,20.45
2019-06-07T23:58:30.218Z,20.43
